LYNI/INI METAR and TAF weather

Enter ICAO airport designator
Station Type Date Time Source
LYNI METAR 2022/06/30 02:00 UTC NOAA

LYNI 300200Z 18003KT CAVOK 19/13 Q1013 NOSIG


Station Type Date Time Source
LYNI Decoded METAR 2022/06/30 02:00 UTC NOAA

Nis, Serbia and Montenegro (LYNI) 43-20N 021-54E 202M
Jun 29, 2022 - 10:00 PM EDT / 2022.06.30 0200 UTC
Wind: from the S (180 degrees) at 3 MPH (3 KT):0
Visibility: greater than 7 mile(s):0
Temperature: 66 F (19 C)
Dew Point: 55 F (13 C)
Relative Humidity: 68%
Pressure (altimeter): 29.91 in. Hg (1013 hPa)
ob: LYNI 300200Z 18003KT CAVOK 19/13 Q1013 NOSIG
cycle: 2

Station Type Date Time Source
LYNI TAF 2022/06/29 18:26 UTC NOAA

TAF LYNI 291700Z 2918/3018 11009KT CAVOK TX34/3014Z TN19/3003Z

Example: see airport list